sensor_id;sensor_type;location;lat;lon;timestamp;pressure;altitude;pressure_sealevel;temperature;humidity
26719;BME280;14326;50.794;6.060;2023-11-21T00:00:53;99108.22;;;9.00;100.00
26719;BME280;14326;50.794;6.060;2023-11-21T00:03:21;99102.03;;;9.01;100.00
26719;BME280;14326;50.794;6.060;2023-11-21T00:05:48;99097.59;;;9.01;100.00
26719;BME280;14326;50.794;6.060;2023-11-21T00:08:15;99101.16;;;9.03;100.00
26719;BME280;14326;50.794;6.060;2023-11-21T00:10:41;99106.41;;;8.97;100.00
26719;BME280;14326;50.794;6.060;2023-11-21T00:13:09;99103.75;;;8.94;100.00
26719;BME280;14326;50.794;6.060;2023-11-21T00:15:37;99111.66;;;8.91;100.00
26719;BME280;14326;50.794;6.060;2023-11-21T00:18:04;99114.25;;;8.82;100.00
26719;BME280;14326;50.794;6.060;2023-11-21T00:20:32;99120.38;;;8.75;100.00
26719;BME280;14326;50.794;6.060;2023-11-21T00:22:59;99120.28;;;8.62;100.00
26719;BME280;14326;50.794;6.060;2023-11-21T00:25:27;99124.63;;;8.56;100.00
26719;BME280;14326;50.794;6.060;2023-11-21T00:27:54;99131.75;;;8.59;100.00
26719;BME280;14326;50.794;6.060;2023-11-21T00:30:21;99130.97;;;8.71;100.00
26719;BME280;14326;50.794;6.060;2023-11-21T00:32:47;99129.19;;;8.70;100.00
26719;BME280;14326;50.794;6.060;2023-11-21T00:35:14;99123.06;;;8.77;100.00
26719;BME280;14326;50.794;6.060;2023-11-21T00:37:42;99122.22;;;8.82;100.00
26719;BME280;14326;50.794;6.060;2023-11-21T00:40:10;99128.38;;;8.80;100.00
26719;BME280;14326;50.794;6.060;2023-11-21T00:42:37;99128.38;;;8.81;100.00
26719;BME280;14326;50.794;6.060;2023-11-21T00:45:05;99135.44;;;8.79;100.00
26719;BME280;14326;50.794;6.060;2023-11-21T00:47:32;99145.16;;;8.77;100.00
26719;BME280;14326;50.794;6.060;2023-11-21T00:49:59;99142.50;;;8.79;100.00
26719;BME280;14326;50.794;6.060;2023-11-21T00:52:25;99146.91;;;8.75;100.00
26719;BME280;14326;50.794;6.060;2023-11-21T00:54:53;99148.63;;;8.70;100.00
26719;BME280;14326;50.794;6.060;2023-11-21T00:57:20;99145.97;;;8.73;100.00
26719;BME280;14326;50.794;6.060;2023-11-21T00:59:46;99150.38;;;8.70;100.00
26719;BME280;14326;50.794;6.060;2023-11-21T01:02:13;99149.53;;;8.71;100.00
26719;BME280;14326;50.794;6.060;2023-11-21T01:04:40;99150.41;;;8.73;100.00
26719;BME280;14326;50.794;6.060;2023-11-21T01:07:07;99158.38;;;8.74;100.00
26719;BME280;14326;50.794;6.060;2023-11-21T01:09:33;99152.09;;;8.66;100.00
26719;BME280;14326;50.794;6.060;2023-11-21T01:12:02;99167.13;;;8.67;100.00
26719;BME280;14326;50.794;6.060;2023-11-21T01:14:28;99163.63;;;8.70;100.00
26719;BME280;14326;50.794;6.060;2023-11-21T01:16:55;99161.84;;;8.67;100.00
26719;BME280;14326;50.794;6.060;2023-11-21T01:19:21;99161.84;;;8.67;100.00
26719;BME280;14326;50.794;6.060;2023-11-21T01:21:48;99162.75;;;8.72;100.00
26719;BME280;14326;50.794;6.060;2023-11-21T01:24:14;99161.03;;;8.74;100.00
26719;BME280;14326;50.794;6.060;2023-11-21T01:26:41;99166.31;;;8.71;100.00
26719;BME280;14326;50.794;6.060;2023-11-21T01:29:10;99165.41;;;8.72;100.00
26719;BME280;14326;50.794;6.060;2023-11-21T01:31:36;99166.28;;;8.70;100.00
26719;BME280;14326;50.794;6.060;2023-11-21T01:34:03;99165.41;;;8.71;100.00
26719;BME280;14326;50.794;6.060;2023-11-21T01:36:30;99171.59;;;8.70;100.00
26719;BME280;14326;50.794;6.060;2023-11-21T01:38:58;99175.97;;;8.65;100.00
26719;BME280;14326;50.794;6.060;2023-11-21T01:41:25;99175.13;;;8.70;100.00
26719;BME280;14326;50.794;6.060;2023-11-21T01:43:53;99176.03;;;8.74;100.00
26719;BME280;14326;50.794;6.060;2023-11-21T01:46:22;99182.19;;;8.70;100.00
26719;BME280;14326;50.794;6.060;2023-11-21T01:48:49;99183.97;;;8.72;100.00
26719;BME280;14326;50.794;6.060;2023-11-21T01:51:16;99182.19;;;8.68;100.00
26719;BME280;14326;50.794;6.060;2023-11-21T01:53:44;99179.50;;;8.67;100.00
26719;BME280;14326;50.794;6.060;2023-11-21T01:56:12;99177.78;;;8.69;100.00
26719;BME280;14326;50.794;6.060;2023-11-21T01:58:39;99179.56;;;8.70;100.00
26719;BME280;14326;50.794;6.060;2023-11-21T02:01:06;99182.22;;;8.73;100.00
26719;BME280;14326;50.794;6.060;2023-11-21T02:03:34;99183.13;;;8.72;100.00
26719;BME280;14326;50.794;6.060;2023-11-21T02:06:00;99180.44;;;8.70;100.00
26719;BME280;14326;50.794;6.060;2023-11-21T02:08:27;99185.75;;;8.70;100.00
26719;BME280;14326;50.794;6.060;2023-11-21T02:10:53;99185.81;;;8.76;100.00
26719;BME280;14326;50.794;6.060;2023-11-21T02:13:20;99182.28;;;8.77;100.00
26719;BME280;14326;50.794;6.060;2023-11-21T02:15:46;99176.03;;;8.72;100.00
26719;BME280;14326;50.794;6.060;2023-11-21T02:18:15;99181.31;;;8.69;100.00
26719;BME280;14326;50.794;6.060;2023-11-21T02:20:44;99191.91;;;8.69;100.00
26719;BME280;14326;50.794;6.060;2023-11-21T02:23:13;99189.28;;;8.74;100.00
26719;BME280;14326;50.794;6.060;2023-11-21T02:25:40;99191.06;;;8.73;100.00
26719;BME280;14326;50.794;6.060;2023-11-21T02:28:08;99193.81;;;8.82;100.00
26719;BME280;14326;50.794;6.060;2023-11-21T02:30:34;99195.56;;;8.80;100.00
26719;BME280;14326;50.794;6.060;2023-11-21T02:33:02;99194.63;;;8.78;100.00
26719;BME280;14326;50.794;6.060;2023-11-21T02:35:29;99193.84;;;8.87;100.00
26719;BME280;14326;50.794;6.060;2023-11-21T02:37:56;99197.41;;;8.87;100.00
26719;BME280;14326;50.794;6.060;2023-11-21T02:40:24;99199.94;;;8.78;100.00
26719;BME280;14326;50.794;6.060;2023-11-21T02:42:51;99207.03;;;8.79;100.00
26719;BME280;14326;50.794;6.060;2023-11-21T02:45:19;99201.72;;;8.79;100.00
26719;BME280;14326;50.794;6.060;2023-11-21T02:47:47;99205.25;;;8.78;100.00
26719;BME280;14326;50.794;6.060;2023-11-21T02:50:14;99200.84;;;8.77;100.00
26719;BME280;14326;50.794;6.060;2023-11-21T02:52:41;99204.28;;;8.69;100.00
26719;BME280;14326;50.794;6.060;2023-11-21T02:55:08;99208.72;;;8.70;100.00
26719;BME280;14326;50.794;6.060;2023-11-21T02:57:36;99209.63;;;8.73;100.00
26719;BME280;14326;50.794;6.060;2023-11-21T03:00:04;99209.63;;;8.72;100.00
26719;BME280;14326;50.794;6.060;2023-11-21T03:02:32;99206.97;;;8.70;100.00
26719;BME280;14326;50.794;6.060;2023-11-21T03:05:02;99202.53;;;8.69;100.00
26719;BME280;14326;50.794;6.060;2023-11-21T03:07:30;99214.00;;;8.68;100.00
26719;BME280;14326;50.794;6.060;2023-11-21T03:09:56;99212.22;;;8.69;100.00
26719;BME280;14326;50.794;6.060;2023-11-21T03:12:23;99209.63;;;8.75;100.00
26719;BME280;14326;50.794;6.060;2023-11-21T03:14:51;99214.03;;;8.73;100.00
26719;BME280;14326;50.794;6.060;2023-11-21T03:17:19;99218.50;;;8.75;100.00
26719;BME280;14326;50.794;6.060;2023-11-21T03:19:46;99221.13;;;8.75;100.00
26719;BME280;14326;50.794;6.060;2023-11-21T03:22:12;99216.69;;;8.74;100.00
26719;BME280;14326;50.794;6.060;2023-11-21T03:24:39;99221.16;;;8.78;100.00
26719;BME280;14326;50.794;6.060;2023-11-21T03:27:06;99229.09;;;8.75;100.00
26719;BME280;14326;50.794;6.060;2023-11-21T03:29:33;99222.94;;;8.79;100.00
26719;BME280;14326;50.794;6.060;2023-11-21T03:32:01;99224.59;;;8.68;100.00
26719;BME280;14326;50.794;6.060;2023-11-21T03:34:28;99235.19;;;8.68;100.00
26719;BME280;14326;50.794;6.060;2023-11-21T03:36:54;99242.31;;;8.71;100.00
26719;BME280;14326;50.794;6.060;2023-11-21T03:39:22;99252.03;;;8.73;100.00
26719;BME280;14326;50.794;6.060;2023-11-21T03:41:48;99259.13;;;8.74;100.00
26719;BME280;14326;50.794;6.060;2023-11-21T03:44:17;99263.50;;;8.72;100.00
26719;BME280;14326;50.794;6.060;2023-11-21T03:46:44;99256.41;;;8.68;100.00
26719;BME280;14326;50.794;6.060;2023-11-21T03:49:12;99256.41;;;8.68;100.00
26719;BME280;14326;50.794;6.060;2023-11-21T03:51:38;99259.03;;;8.67;100.00
26719;BME280;14326;50.794;6.060;2023-11-21T03:54:05;99263.53;;;8.74;100.00
26719;BME280;14326;50.794;6.060;2023-11-21T03:56:32;99264.41;;;8.71;100.00
26719;BME280;14326;50.794;6.060;2023-11-21T03:58:58;99267.06;;;8.73;100.00
26719;BME280;14326;50.794;6.060;2023-11-21T04:01:25;99258.22;;;8.72;100.00
26719;BME280;14326;50.794;6.060;2023-11-21T04:03:51;99267.06;;;8.73;100.00
26719;BME280;14326;50.794;6.060;2023-11-21T04:06:19;99267.94;;;8.73;100.00
26719;BME280;14326;50.794;6.060;2023-11-21T04:08:46;99266.06;;;8.61;100.00
26719;BME280;14326;50.794;6.060;2023-11-21T04:11:12;99277.53;;;8.59;100.00
26719;BME280;14326;50.794;6.060;2023-11-21T04:13:39;99271.41;;;8.66;100.00
26719;BME280;14326;50.794;6.060;2023-11-21T04:16:08;99269.72;;;8.74;100.00
26719;BME280;14326;50.794;6.060;2023-11-21T04:18:36;99266.25;;;8.77;100.00
26719;BME280;14326;50.794;6.060;2023-11-21T04:21:03;99266.25;;;8.80;100.00
26719;BME280;14326;50.794;6.060;2023-11-21T04:23:31;99265.38;;;8.79;100.00
26719;BME280;14326;50.794;6.060;2023-11-21T04:25:57;99275.00;;;8.73;100.00
26719;BME280;14326;50.794;6.060;2023-11-21T04:28:24;99273.19;;;8.66;100.00
26719;BME280;14326;50.794;6.060;2023-11-21T04:30:51;99278.59;;;8.75;100.00
26719;BME280;14326;50.794;6.060;2023-11-21T04:33:18;99279.41;;;8.72;100.00
26719;BME280;14326;50.794;6.060;2023-11-21T04:35:44;99285.72;;;8.80;100.00
26719;BME280;14326;50.794;6.060;2023-11-21T04:38:11;99282.16;;;8.78;100.00
26719;BME280;14326;50.794;6.060;2023-11-21T04:40:39;99280.44;;;8.82;100.00
26719;BME280;14326;50.794;6.060;2023-11-21T04:43:06;99289.28;;;8.82;100.00
26719;BME280;14326;50.794;6.060;2023-11-21T04:45:32;99286.66;;;8.87;100.00
26719;BME280;14326;50.794;6.060;2023-11-21T04:47:59;99291.00;;;8.80;100.00
26719;BME280;14326;50.794;6.060;2023-11-21T04:50:26;99290.09;;;8.75;100.00
26719;BME280;14326;50.794;6.060;2023-11-21T04:52:53;99291.00;;;8.79;100.00
26719;BME280;14326;50.794;6.060;2023-11-21T04:55:19;99292.66;;;8.69;100.00
26719;BME280;14326;50.794;6.060;2023-11-21T04:57:47;99299.78;;;8.75;100.00
26719;BME280;14326;50.794;6.060;2023-11-21T05:00:14;99293.59;;;8.71;100.00
26719;BME280;14326;50.794;6.060;2023-11-21T05:02:41;99303.31;;;8.74;100.00
26719;BME280;14326;50.794;6.060;2023-11-21T05:05:09;99300.72;;;8.80;100.00
26719;BME280;14326;50.794;6.060;2023-11-21T05:07:36;99297.16;;;8.75;100.00
26719;BME280;14326;50.794;6.060;2023-11-21T05:10:04;99305.13;;;8.76;100.00
26719;BME280;14326;50.794;6.060;2023-11-21T05:12:33;99314.78;;;8.71;100.00
26719;BME280;14326;50.794;6.060;2023-11-21T05:15:04;99308.66;;;8.77;100.00
26719;BME280;14326;50.794;6.060;2023-11-21T05:17:32;99313.97;;;8.77;100.00
26719;BME280;14326;50.794;6.060;2023-11-21T05:19:59;99308.66;;;8.77;100.00
26719;BME280;14326;50.794;6.060;2023-11-21T05:22:27;99309.56;;;8.77;100.00
26719;BME280;14326;50.794;6.060;2023-11-21T05:24:53;99313.09;;;8.79;100.00
26719;BME280;14326;50.794;6.060;2023-11-21T05:27:20;99320.09;;;8.71;100.00
26719;BME280;14326;50.794;6.060;2023-11-21T05:29:46;99321.81;;;8.69;100.00
26719;BME280;14326;50.794;6.060;2023-11-21T05:32:14;99321.78;;;8.66;100.00
26719;BME280;14326;50.794;6.060;2023-11-21T05:34:42;99325.41;;;8.71;100.00
26719;BME280;14326;50.794;6.060;2023-11-21T05:37:09;99330.78;;;8.77;100.00
26719;BME280;14326;50.794;6.060;2023-11-21T05:39:36;99332.53;;;8.78;100.00
26719;BME280;14326;50.794;6.060;2023-11-21T05:42:02;99335.16;;;8.75;100.00
26719;BME280;14326;50.794;6.060;2023-11-21T05:44:30;99337.75;;;8.72;100.00
26719;BME280;14326;50.794;6.060;2023-11-21T05:46:56;99339.59;;;8.76;100.00
26719;BME280;14326;50.794;6.060;2023-11-21T05:49:25;99343.03;;;8.69;100.00
26719;BME280;14326;50.794;6.060;2023-11-21T05:51:54;99349.19;;;8.67;100.00
26719;BME280;14326;50.794;6.060;2023-11-21T05:54:20;99353.59;;;8.65;100.00
26719;BME280;14326;50.794;6.060;2023-11-21T05:56:47;99356.28;;;8.69;100.00
26719;BME280;14326;50.794;6.060;2023-11-21T05:59:14;99364.34;;;8.77;100.00
26719;BME280;14326;50.794;6.060;2023-11-21T06:01:41;99362.63;;;8.80;100.00
26719;BME280;14326;50.794;6.060;2023-11-21T06:04:08;99375.00;;;8.81;100.00
26719;BME280;14326;50.794;6.060;2023-11-21T06:06:36;99386.47;;;8.77;100.00
26719;BME280;14326;50.794;6.060;2023-11-21T06:09:03;99387.34;;;8.79;100.00
26719;BME280;14326;50.794;6.060;2023-11-21T06:11:31;99389.09;;;8.77;100.00
26719;BME280;14326;50.794;6.060;2023-11-21T06:13:57;99388.22;;;8.78;100.00
26719;BME280;14326;50.794;6.060;2023-11-21T06:16:24;99388.22;;;8.78;100.00
26719;BME280;14326;50.794;6.060;2023-11-21T06:18:51;99400.66;;;8.82;100.00
26719;BME280;14326;50.794;6.060;2023-11-21T06:21:17;99397.13;;;8.82;100.00
26719;BME280;14326;50.794;6.060;2023-11-21T06:23:45;99395.34;;;8.82;100.00
26719;BME280;14326;50.794;6.060;2023-11-21T06:26:12;99390.91;;;8.81;100.00
26719;BME280;14326;50.794;6.060;2023-11-21T06:28:39;99399.75;;;8.80;100.00
26719;BME280;14326;50.794;6.060;2023-11-21T06:31:06;99408.63;;;8.82;100.00
26719;BME280;14326;50.794;6.060;2023-11-21T06:33:33;99404.06;;;8.74;100.00
26719;BME280;14326;50.794;6.060;2023-11-21T06:36:00;99402.22;;;8.68;100.00
26719;BME280;14326;50.794;6.060;2023-11-21T06:38:27;99406.66;;;8.69;100.00
26719;BME280;14326;50.794;6.060;2023-11-21T06:40:56;99403.19;;;8.73;100.00
26719;BME280;14326;50.794;6.060;2023-11-21T06:43:23;99403.19;;;8.75;100.00
26719;BME280;14326;50.794;6.060;2023-11-21T06:45:50;99410.31;;;8.79;100.00
26719;BME280;14326;50.794;6.060;2023-11-21T06:48:16;99415.66;;;8.80;100.00
26719;BME280;14326;50.794;6.060;2023-11-21T06:50:43;99411.09;;;8.69;100.00
26719;BME280;14326;50.794;6.060;2023-11-21T06:53:10;99417.28;;;8.72;100.00
26719;BME280;14326;50.794;6.060;2023-11-21T06:55:36;99423.50;;;8.73;100.00
26719;BME280;14326;50.794;6.060;2023-11-21T06:58:04;99425.16;;;8.66;100.00
26719;BME280;14326;50.794;6.060;2023-11-21T07:00:31;99422.56;;;8.69;100.00
26719;BME280;14326;50.794;6.060;2023-11-21T07:02:58;99428.72;;;8.67;100.00
26719;BME280;14326;50.794;6.060;2023-11-21T07:05:24;99450.88;;;8.70;100.00
26719;BME280;14326;50.794;6.060;2023-11-21T07:07:51;99448.25;;;8.73;100.00
26719;BME280;14326;50.794;6.060;2023-11-21T07:10:19;99448.31;;;8.76;100.00
26719;BME280;14326;50.794;6.060;2023-11-21T07:12:46;99451.81;;;8.75;100.00
26719;BME280;14326;50.794;6.060;2023-11-21T07:15:14;99456.28;;;8.79;100.00
26719;BME280;14326;50.794;6.060;2023-11-21T07:17:40;99455.41;;;8.79;100.00
26719;BME280;14326;50.794;6.060;2023-11-21T07:20:07;99457.19;;;8.80;100.00
26719;BME280;14326;50.794;6.060;2023-11-21T07:22:34;99459.91;;;8.86;100.00
26719;BME280;14326;50.794;6.060;2023-11-21T07:25:01;99462.63;;;8.90;100.00
26719;BME280;14326;50.794;6.060;2023-11-21T07:27:27;99468.84;;;8.89;100.00
26719;BME280;14326;50.794;6.060;2023-11-21T07:29:54;99474.94;;;8.85;100.00
26719;BME280;14326;50.794;6.060;2023-11-21T07:32:22;99467.88;;;8.86;100.00
26719;BME280;14326;50.794;6.060;2023-11-21T07:34:48;99477.56;;;8.82;100.00
26719;BME280;14326;50.794;6.060;2023-11-21T07:37:15;99485.59;;;8.88;100.00
26719;BME280;14326;50.794;6.060;2023-11-21T07:39:42;99479.47;;;8.92;100.00
26719;BME280;14326;50.794;6.060;2023-11-21T07:42:09;99491.88;;;8.93;100.00
26719;BME280;14326;50.794;6.060;2023-11-21T07:44:36;99486.59;;;8.95;100.00
26719;BME280;14326;50.794;6.060;2023-11-21T07:47:03;99503.38;;;8.97;100.00
26719;BME280;14326;50.794;6.060;2023-11-21T07:49:31;99496.28;;;8.96;100.00
26719;BME280;14326;50.794;6.060;2023-11-21T07:51:57;99508.78;;;9.03;100.00
26719;BME280;14326;50.794;6.060;2023-11-21T07:54:24;99510.56;;;9.04;100.00
26719;BME280;14326;50.794;6.060;2023-11-21T07:56:51;99508.78;;;9.03;100.00
26719;BME280;14326;50.794;6.060;2023-11-21T07:59:17;99511.41;;;9.01;100.00
26719;BME280;14326;50.794;6.060;2023-11-21T08:01:44;99507.06;;;9.07;100.00
26719;BME280;14326;50.794;6.060;2023-11-21T08:04:11;99519.44;;;9.06;100.00
26719;BME280;14326;50.794;6.060;2023-11-21T08:06:39;99522.09;;;9.08;100.00
26719;BME280;14326;50.794;6.060;2023-11-21T08:09:06;99526.56;;;9.10;100.00
26719;BME280;14326;50.794;6.060;2023-11-21T08:11:34;99524.91;;;9.17;100.00
26719;BME280;14326;50.794;6.060;2023-11-21T08:14:00;99531.06;;;9.16;100.00
26719;BME280;14326;50.794;6.060;2023-11-21T08:16:27;99534.59;;;9.15;100.00
26719;BME280;14326;50.794;6.060;2023-11-21T08:18:53;99534.78;;;9.28;100.00
26719;BME280;14326;50.794;6.060;2023-11-21T08:21:20;99546.19;;;9.23;100.00
26719;BME280;14326;50.794;6.060;2023-11-21T08:23:50;99540.03;;;9.25;100.00
26719;BME280;14326;50.794;6.060;2023-11-21T08:26:19;99547.22;;;9.34;100.00
26719;BME280;14326;50.794;6.060;2023-11-21T08:28:46;99543.78;;;9.41;100.00
26719;BME280;14326;50.794;6.060;2023-11-21T08:31:13;99541.09;;;9.39;100.00
26719;BME280;14326;50.794;6.060;2023-11-21T08:33:41;99549.22;;;9.52;100.00
26719;BME280;14326;50.794;6.060;2023-11-21T08:36:08;99552.72;;;9.49;100.00
26719;BME280;14326;50.794;6.060;2023-11-21T08:38:36;99555.44;;;9.52;100.00
26719;BME280;14326;50.794;6.060;2023-11-21T08:41:05;99556.34;;;9.56;100.00
26719;BME280;14326;50.794;6.060;2023-11-21T08:43:33;99558.09;;;9.55;100.00
26719;BME280;14326;50.794;6.060;2023-11-21T08:46:00;99567.06;;;9.63;100.00
26719;BME280;14326;50.794;6.060;2023-11-21T08:48:26;99567.09;;;9.65;100.00
26719;BME280;14326;50.794;6.060;2023-11-21T08:50:55;99565.34;;;9.68;100.00
26719;BME280;14326;50.794;6.060;2023-11-21T08:53:21;99576.94;;;9.72;100.00
26719;BME280;14326;50.794;6.060;2023-11-21T08:55:48;99574.34;;;9.79;100.00
26719;BME280;14326;50.794;6.060;2023-11-21T08:58:16;99576.91;;;9.73;100.00
26719;BME280;14326;50.794;6.060;2023-11-21T09:00:43;99581.44;;;9.80;100.00
26719;BME280;14326;50.794;6.060;2023-11-21T09:03:11;99583.28;;;9.88;100.00
26719;BME280;14326;50.794;6.060;2023-11-21T09:05:38;99586.91;;;9.94;100.00
26719;BME280;14326;50.794;6.060;2023-11-21T09:08:05;99582.47;;;9.96;100.00
26719;BME280;14326;50.794;6.060;2023-11-21T09:10:33;99589.59;;;9.99;100.00
26719;BME280;14326;50.794;6.060;2023-11-21T09:13:01;99596.63;;;9.92;100.00
26719;BME280;14326;50.794;6.060;2023-11-21T09:15:28;99601.16;;;10.02;100.00
26719;BME280;14326;50.794;6.060;2023-11-21T09:17:55;99603.81;;;10.01;100.00
26719;BME280;14326;50.794;6.060;2023-11-21T09:20:22;99605.56;;;9.99;100.00
26719;BME280;14326;50.794;6.060;2023-11-21T09:22:49;99602.84;;;9.96;100.00
26719;BME280;14326;50.794;6.060;2023-11-21T09:25:15;99615.34;;;10.03;100.00
26719;BME280;14326;50.794;6.060;2023-11-21T09:27:42;99611.81;;;10.04;100.00
26719;BME280;14326;50.794;6.060;2023-11-21T09:30:09;99614.59;;;10.13;100.00
26719;BME280;14326;50.794;6.060;2023-11-21T09:32:37;99616.25;;;10.08;100.00
26719;BME280;14326;50.794;6.060;2023-11-21T09:35:06;99611.88;;;10.10;100.00
26719;BME280;14326;50.794;6.060;2023-11-21T09:37:33;99617.16;;;10.07;100.00
26719;BME280;14326;50.794;6.060;2023-11-21T09:40:01;99622.56;;;10.13;100.00
26719;BME280;14326;50.794;6.060;2023-11-21T09:42:31;99629.72;;;10.17;100.00
26719;BME280;14326;50.794;6.060;2023-11-21T09:45:03;99626.19;;;10.21;100.00
26719;BME280;14326;50.794;6.060;2023-11-21T09:47:35;99632.41;;;10.21;100.00
26719;BME280;14326;50.794;6.060;2023-11-21T09:50:05;99635.06;;;10.18;100.00
26719;BME280;14326;50.794;6.060;2023-11-21T09:52:39;99629.81;;;10.24;100.00
26719;BME280;14326;50.794;6.060;2023-11-21T09:55:13;99640.47;;;10.29;100.00
26719;BME280;14326;50.794;6.060;2023-11-21T09:57:41;99634.31;;;10.33;100.00
26719;BME280;14326;50.794;6.060;2023-11-21T10:00:10;99632.63;;;10.43;100.00
26719;BME280;14326;50.794;6.060;2023-11-21T10:02:43;99624.59;;;10.38;100.00
26719;BME280;14326;50.794;6.060;2023-11-21T10:05:11;99640.56;;;10.38;100.00
26719;BME280;14326;50.794;6.060;2023-11-21T10:07:39;99634.41;;;10.44;100.00
26719;BME280;14326;50.794;6.060;2023-11-21T10:10:07;99636.22;;;10.46;100.00
26719;BME280;14326;50.794;6.060;2023-11-21T10:12:35;99646.88;;;10.51;100.00
26719;BME280;14326;50.794;6.060;2023-11-21T10:15:03;99642.53;;;10.57;100.00
26719;BME280;14326;50.794;6.060;2023-11-21T10:17:36;99634.69;;;10.71;100.00
26719;BME280;14326;50.794;6.060;2023-11-21T10:20:10;99637.38;;;10.79;100.00
26719;BME280;14326;50.794;6.060;2023-11-21T10:22:38;99643.72;;;10.96;100.00
26719;BME280;14326;50.794;6.060;2023-11-21T10:25:07;99640.28;;;11.06;100.00
26719;BME280;14326;50.794;6.060;2023-11-21T10:27:34;99642.16;;;11.18;100.00
26719;BME280;14326;50.794;6.060;2023-11-21T10:30:01;99649.25;;;11.22;100.00
26719;BME280;14326;50.794;6.060;2023-11-21T10:32:28;99650.16;;;11.22;100.00
26719;BME280;14326;50.794;6.060;2023-11-21T10:34:57;99645.75;;;11.27;100.00
26719;BME280;14326;50.794;6.060;2023-11-21T10:37:26;99652.88;;;11.31;100.00
26719;BME280;14326;50.794;6.060;2023-11-21T10:39:57;99655.53;;;11.31;100.00
26719;BME280;14326;50.794;6.060;2023-11-21T10:42:23;99657.31;;;11.29;100.00
26719;BME280;14326;50.794;6.060;2023-11-21T10:44:52;99655.47;;;11.22;100.00
26719;BME280;14326;50.794;6.060;2023-11-21T10:47:19;99655.44;;;11.19;100.00
26719;BME280;14326;50.794;6.060;2023-11-21T10:49:48;99653.69;;;11.21;100.00
26719;BME280;14326;50.794;6.060;2023-11-21T10:52:15;99651.91;;;11.17;100.00
26719;BME280;14326;50.794;6.060;2023-11-21T10:54:44;99646.56;;;11.13;100.00
26719;BME280;14326;50.794;6.060;2023-11-21T10:57:11;99650.13;;;11.21;100.00
26719;BME280;14326;50.794;6.060;2023-11-21T10:59:41;99647.44;;;11.19;100.00
26719;BME280;14326;50.794;6.060;2023-11-21T11:02:20;99651.09;;;11.29;100.00
26719;BME280;14326;50.794;6.060;2023-11-21T11:04:48;99652.91;;;11.34;100.00
26719;BME280;14326;50.794;6.060;2023-11-21T11:07:16;99660.00;;;11.34;100.00
26719;BME280;14326;50.794;6.060;2023-11-21T11:09:44;99657.38;;;11.43;100.00
26719;BME280;14326;50.794;6.060;2023-11-21T11:12:13;99658.22;;;11.37;100.00
26719;BME280;14326;50.794;6.060;2023-11-21T11:14:42;99659.97;;;11.29;100.00
26719;BME280;14326;50.794;6.060;2023-11-21T11:17:10;99662.56;;;11.20;100.00
26719;BME280;14326;50.794;6.060;2023-11-21T11:19:37;99666.09;;;11.19;100.00
26719;BME280;14326;50.794;6.060;2023-11-21T11:22:19;99667.84;;;11.16;100.00
26719;BME280;14326;50.794;6.060;2023-11-21T11:25:17;99671.44;;;11.18;100.00
26719;BME280;14326;50.794;6.060;2023-11-21T11:27:54;99665.25;;;11.22;100.00
26719;BME280;14326;50.794;6.060;2023-11-21T11:30:31;99662.56;;;11.20;100.00
26719;BME280;14326;50.794;6.060;2023-11-21T11:33:08;99666.16;;;11.27;100.00
26719;BME280;14326;50.794;6.060;2023-11-21T11:35:46;99669.75;;;11.30;100.00
26719;BME280;14326;50.794;6.060;2023-11-21T11:38:15;99667.97;;;11.32;100.00
26719;BME280;14326;50.794;6.060;2023-11-21T11:40:45;99670.63;;;11.29;100.00
26719;BME280;14326;50.794;6.060;2023-11-21T11:43:13;99668.00;;;11.35;100.00
26719;BME280;14326;50.794;6.060;2023-11-21T11:45:39;99668.00;;;11.38;100.00
26719;BME280;14326;50.794;6.060;2023-11-21T11:48:08;99674.22;;;11.37;100.00
26719;BME280;14326;50.794;6.060;2023-11-21T11:50:34;99666.22;;;11.34;100.00
26719;BME280;14326;50.794;6.060;2023-11-21T11:53:15;99669.78;;;11.36;100.00
26719;BME280;14326;50.794;6.060;2023-11-21T11:55:43;99669.78;;;11.36;100.00
26719;BME280;14326;50.794;6.060;2023-11-21T11:58:10;99675.13;;;11.36;100.00
26719;BME280;14326;50.794;6.060;2023-11-21T12:00:37;99665.38;;;11.40;100.00
26719;BME280;14326;50.794;6.060;2023-11-21T12:03:07;99669.81;;;11.44;100.00
26719;BME280;14326;50.794;6.060;2023-11-21T12:05:35;99674.34;;;11.54;100.00
26719;BME280;14326;50.794;6.060;2023-11-21T12:08:05;99677.88;;;11.53;100.00
26719;BME280;14326;50.794;6.060;2023-11-21T12:10:33;99677.03;;;11.59;100.00
26719;BME280;14326;50.794;6.060;2023-11-21T12:13:04;99682.34;;;11.57;100.00
26719;BME280;14326;50.794;6.060;2023-11-21T12:15:32;99686.84;;;11.66;100.00
26719;BME280;14326;50.794;6.060;2023-11-21T12:18:00;99686.88;;;11.72;100.00
26719;BME280;14326;50.794;6.060;2023-11-21T12:20:27;99684.16;;;11.63;100.00
26719;BME280;14326;50.794;6.060;2023-11-21T12:22:56;99687.75;;;11.71;100.00
26719;BME280;14326;50.794;6.060;2023-11-21T12:25:25;99687.72;;;11.68;100.00
26719;BME280;14326;50.794;6.060;2023-11-21T12:27:54;99691.22;;;11.61;100.00
26719;BME280;14326;50.794;6.060;2023-11-21T12:30:23;99690.34;;;11.59;100.00
26719;BME280;14326;50.794;6.060;2023-11-21T12:32:54;99696.50;;;11.48;100.00
26719;BME280;14326;50.794;6.060;2023-11-21T12:35:22;99696.50;;;11.52;100.00
26719;BME280;14326;50.794;6.060;2023-11-21T12:37:51;99704.47;;;11.45;100.00
26719;BME280;14326;50.794;6.060;2023-11-21T12:40:19;99696.50;;;11.48;100.00
26719;BME280;14326;50.794;6.060;2023-11-21T12:42:49;99707.09;;;11.44;100.00
26719;BME280;14326;50.794;6.060;2023-11-21T12:45:21;99719.47;;;11.34;100.00
26719;BME280;14326;50.794;6.060;2023-11-21T12:47:51;99725.59;;;11.21;100.00
26719;BME280;14326;50.794;6.060;2023-11-21T12:50:22;99729.97;;;11.13;100.00
26719;BME280;14326;50.794;6.060;2023-11-21T12:52:51;99731.72;;;11.11;100.00
26719;BME280;14326;50.794;6.060;2023-11-21T12:55:20;99728.97;;;11.03;100.00
26719;BME280;14326;50.794;6.060;2023-11-21T12:57:48;99733.41;;;11.00;100.00
26719;BME280;14326;50.794;6.060;2023-11-21T13:00:17;99735.88;;;10.82;100.00